< < Back
Terminal Aerodrome Forecast


Current Version              Previous Versions:   1  2  3  4  5  6  7  8  9  

Terminal Aerodrome Forecast

444
FTUS44 KMRX 181126
TAFTYS
TAF
KTYS 181126Z 1812/1912 03005KT P6SM SCT050 BKN150
     FM190100 02004KT P6SM SCT060 BKN120=



Latest METAR

151
SAUS80 KWBC 181800 RRB
MTRTYS
METAR KTYS 181753Z 03005KT 10SM SCT110 OVC200 16/03 A3028 RMK AO2 SLP252
T01560033 10156 20094 58017


USA.gov is the U.S. government's official web portal to all federal, state and local government web resources and services.